createdAt,value
2023-04-14T00:00:12.761Z,3.20
2023-04-14T00:02:41.152Z,2.57
2023-04-14T00:05:10.169Z,3.37
2023-04-14T00:07:39.673Z,3.07
2023-04-14T00:10:08.482Z,2.57
2023-04-14T00:12:36.782Z,2.57
2023-04-14T00:15:05.333Z,2.97
2023-04-14T00:17:36.054Z,2.27
2023-04-14T00:20:04.457Z,2.50
2023-04-14T00:22:32.463Z,2.80
2023-04-14T00:25:02.957Z,2.67
2023-04-14T00:27:31.224Z,3.00
2023-04-14T00:29:59.309Z,2.73
2023-04-14T00:32:30.110Z,2.77
2023-04-14T00:35:00.190Z,3.47
2023-04-14T00:37:28.277Z,3.40
2023-04-14T00:39:56.428Z,2.23
2023-04-14T00:42:26.148Z,2.33
2023-04-14T00:44:54.264Z,2.60
2023-04-14T00:47:23.863Z,1.97
2023-04-14T00:49:52.204Z,2.37
2023-04-14T00:52:22.568Z,3.40
2023-04-14T00:54:51.164Z,2.97
2023-04-14T00:57:19.552Z,2.57
2023-04-14T00:59:49.281Z,1.93
2023-04-14T01:02:17.550Z,2.43
2023-04-14T01:04:53.771Z,2.03
2023-04-14T01:07:25.538Z,2.30
2023-04-14T01:09:55.737Z,2.43
2023-04-14T01:12:33.717Z,1.90
2023-04-14T01:15:12.774Z,1.90
2023-04-14T01:17:46.896Z,1.80
2023-04-14T01:20:24.274Z,2.27
2023-04-14T01:22:56.725Z,1.50
2023-04-14T01:26:11.762Z,2.50
2023-04-14T01:29:02.722Z,2.60
2023-04-14T01:31:38.974Z,2.80
2023-04-14T01:34:14.331Z,3.10
2023-04-14T01:36:46.779Z,3.20
2023-04-14T01:39:20.674Z,2.40
2023-04-14T01:41:53.747Z,1.97
2023-04-14T01:44:23.145Z,3.30
2023-04-14T01:47:02.255Z,2.47
2023-04-14T01:49:33.306Z,2.13
2023-04-14T01:52:03.365Z,2.27
2023-04-14T01:54:34.556Z,2.30
2023-04-14T01:57:04.143Z,3.30
2023-04-14T01:59:34.857Z,3.20
2023-04-14T02:02:08.866Z,2.60
2023-04-14T02:04:37.949Z,2.67
2023-04-14T02:07:07.495Z,2.50
2023-04-14T02:09:36.949Z,1.70
2023-04-14T02:12:07.242Z,3.13
2023-04-14T02:14:38.100Z,2.50
2023-04-14T02:17:10.525Z,3.20
2023-04-14T02:19:39.506Z,3.07
2023-04-14T02:22:07.745Z,3.47
2023-04-14T02:24:35.817Z,3.83
2023-04-14T02:27:09.907Z,3.50
2023-04-14T02:29:41.435Z,2.63
2023-04-14T02:32:18.568Z,2.50
2023-04-14T02:34:56.975Z,2.60
2023-04-14T02:37:28.451Z,2.40
2023-04-14T02:40:01.902Z,3.80
2023-04-14T02:42:32.122Z,3.93
2023-04-14T02:45:04.426Z,3.20
2023-04-14T02:47:38.377Z,3.00
2023-04-14T02:50:08.766Z,2.77
2023-04-14T02:52:37.677Z,2.77
2023-04-14T02:55:07.921Z,2.90
2023-04-14T02:57:36.210Z,3.60
2023-04-14T03:00:06.172Z,4.50
2023-04-14T03:02:37.607Z,2.40
2023-04-14T03:05:10.022Z,2.30
2023-04-14T03:07:39.040Z,3.00
2023-04-14T03:10:09.051Z,3.20
2023-04-14T03:12:37.641Z,4.00
2023-04-14T03:15:08.275Z,3.67
2023-04-14T03:17:38.389Z,2.40
2023-04-14T03:20:09.245Z,2.00
2023-04-14T03:22:41.652Z,3.37
2023-04-14T03:25:12.300Z,2.70
2023-04-14T03:27:41.263Z,3.30
2023-04-14T03:30:12.510Z,4.53
2023-04-14T03:32:47.747Z,3.00
2023-04-14T03:35:16.868Z,3.53
2023-04-14T03:37:47.274Z,2.93
2023-04-14T03:40:16.469Z,3.47
2023-04-14T03:42:46.984Z,3.90
2023-04-14T03:45:15.430Z,2.37
2023-04-14T03:47:45.041Z,2.70
2023-04-14T03:50:15.546Z,2.97
2023-04-14T03:52:46.979Z,2.77
2023-04-14T03:55:19.052Z,2.80
2023-04-14T03:57:48.389Z,2.20
2023-04-14T04:00:17.663Z,2.33
2023-04-14T04:02:48.086Z,2.53
2023-04-14T04:05:16.709Z,2.70
2023-04-14T04:07:45.896Z,2.83
2023-04-14T04:10:15.134Z,3.20
2023-04-14T04:12:45.340Z,2.50
2023-04-14T04:15:13.506Z,2.80
2023-04-14T04:17:42.903Z,2.77
2023-04-14T04:20:15.978Z,3.00
2023-04-14T04:22:46.370Z,2.73
2023-04-14T04:25:14.979Z,3.15
2023-04-14T04:27:43.253Z,3.80
2023-04-14T04:30:13.369Z,3.07
2023-04-14T04:32:41.575Z,3.37
2023-04-14T04:35:12.226Z,5.10
2023-04-14T04:37:41.400Z,3.20
2023-04-14T04:40:10.767Z,2.60
2023-04-14T04:42:43.017Z,4.57
2023-04-14T04:45:11.974Z,2.97
2023-04-14T04:47:40.281Z,3.83
2023-04-14T04:50:09.228Z,2.97
2023-04-14T04:52:38.727Z,3.40
2023-04-14T04:55:08.181Z,3.20
2023-04-14T04:57:36.263Z,4.03
2023-04-14T05:00:05.382Z,2.83
2023-04-14T05:02:33.553Z,3.50
2023-04-14T05:05:01.856Z,4.50
2023-04-14T05:07:29.896Z,3.70
2023-04-14T05:09:59.311Z,4.70
2023-04-14T05:12:27.409Z,2.70
2023-04-14T05:14:55.455Z,3.40
2023-04-14T05:17:23.652Z,3.53
2023-04-14T05:19:51.728Z,2.70
2023-04-14T05:22:19.853Z,3.10
2023-04-14T05:24:50.462Z,3.30
2023-04-14T05:27:21.927Z,5.30
2023-04-14T05:29:49.976Z,3.40
2023-04-14T05:32:18.067Z,2.80
2023-04-14T05:34:46.172Z,3.53
2023-04-14T05:37:14.248Z,3.43
2023-04-14T05:39:42.357Z,2.73
2023-04-14T05:42:10.528Z,3.37
2023-04-14T05:44:39.995Z,3.60
2023-04-14T05:47:08.051Z,3.50
2023-04-14T05:49:36.258Z,2.53
2023-04-14T05:52:04.371Z,2.33
2023-04-14T05:54:32.393Z,2.50
2023-04-14T05:57:00.931Z,3.10
2023-04-14T05:59:29.010Z,2.60
2023-04-14T06:01:59.951Z,2.73
2023-04-14T06:04:28.157Z,2.73
2023-04-14T06:06:56.215Z,2.57
2023-04-14T06:09:24.323Z,2.40
2023-04-14T06:11:52.374Z,2.50
2023-04-14T06:14:20.435Z,3.30
2023-04-14T06:16:48.501Z,3.23
2023-04-14T06:19:19.284Z,2.50
2023-04-14T06:21:47.725Z,2.30
2023-04-14T06:24:15.965Z,2.83
2023-04-14T06:26:44.103Z,1.83
2023-04-14T06:29:12.124Z,1.67
2023-04-14T06:31:40.657Z,3.13
2023-04-14T06:34:08.784Z,1.40
2023-04-14T06:36:38.309Z,2.00
2023-04-14T06:39:06.346Z,2.40
2023-04-14T06:41:34.388Z,2.70
2023-04-14T06:44:02.438Z,2.03
2023-04-14T06:46:30.759Z,2.30
2023-04-14T06:48:58.975Z,2.23
2023-04-14T06:51:27.195Z,2.37
2023-04-14T06:53:57.557Z,2.43
2023-04-14T06:56:25.663Z,1.70
2023-04-14T06:58:53.883Z,1.83
2023-04-14T07:01:22.026Z,2.10
2023-04-14T07:03:50.164Z,2.20
2023-04-14T07:06:18.300Z,2.00
2023-04-14T07:08:46.702Z,1.87
2023-04-14T07:11:16.226Z,1.80
2023-04-14T07:13:44.380Z,1.97
2023-04-14T07:16:12.967Z,1.60
2023-04-14T07:18:41.106Z,1.43
2023-04-14T07:21:09.178Z,1.87
2023-04-14T07:23:37.540Z,1.73
2023-04-14T07:26:06.205Z,1.53
2023-04-14T07:28:35.698Z,2.03
2023-04-14T07:31:09.745Z,2.13
2023-04-14T07:33:38.040Z,1.93
2023-04-14T07:36:07.294Z,2.23
2023-04-14T07:38:35.553Z,1.20
2023-04-14T07:41:05.526Z,1.63
2023-04-14T07:43:36.037Z,1.60
2023-04-14T07:46:05.275Z,2.37
2023-04-14T07:48:34.208Z,1.53
2023-04-14T07:51:03.121Z,1.90
2023-04-14T07:53:31.457Z,1.67
2023-04-14T07:55:59.721Z,1.70
2023-04-14T07:58:29.246Z,1.43
2023-04-14T08:00:59.047Z,3.30
2023-04-14T08:03:27.349Z,1.93
2023-04-14T08:05:55.865Z,1.53
2023-04-14T08:08:24.207Z,1.80
2023-04-14T08:10:52.278Z,1.60
2023-04-14T08:13:20.271Z,1.30
2023-04-14T08:15:48.407Z,1.77
2023-04-14T08:18:17.911Z,1.60
2023-04-14T08:20:45.956Z,1.50
2023-04-14T08:23:14.009Z,1.07
2023-04-14T08:25:42.332Z,1.90
2023-04-14T08:28:10.392Z,1.90
2023-04-14T08:30:38.582Z,1.10
2023-04-14T08:33:06.910Z,1.40
2023-04-14T08:35:41.584Z,1.03
2023-04-14T08:38:11.353Z,1.20
2023-04-14T08:40:40.860Z,1.83
2023-04-14T08:43:09.348Z,0.93
2023-04-14T08:45:38.228Z,1.93
2023-04-14T08:48:07.046Z,1.30
2023-04-14T08:50:38.691Z,1.43
2023-04-14T08:53:10.716Z,1.53
2023-04-14T08:55:41.835Z,1.40
2023-04-14T08:58:11.525Z,1.90
2023-04-14T09:00:40.480Z,1.80
2023-04-14T09:03:09.504Z,1.07
2023-04-14T09:05:40.663Z,1.23
2023-04-14T09:08:09.098Z,1.40
2023-04-14T09:10:37.676Z,1.40
2023-04-14T09:13:06.595Z,1.23
2023-04-14T09:15:34.747Z,1.10
2023-04-14T09:18:03.448Z,1.07
2023-04-14T09:20:35.323Z,1.37
2023-04-14T09:23:10.093Z,1.50
2023-04-14T09:25:39.781Z,1.50
2023-04-14T09:28:08.176Z,1.63
2023-04-14T09:30:36.325Z,1.10
2023-04-14T09:33:07.151Z,1.07
2023-04-14T09:35:46.297Z,0.80
2023-04-14T09:38:16.010Z,1.50
2023-04-14T09:40:45.170Z,1.47
2023-04-14T09:43:26.953Z,1.43
2023-04-14T09:45:56.631Z,1.33
2023-04-14T09:48:25.685Z,0.90
2023-04-14T09:51:06.664Z,1.23
2023-04-14T09:53:37.385Z,1.07
2023-04-14T09:56:07.829Z,1.67
2023-04-14T09:58:37.111Z,1.40
2023-04-14T10:01:06.958Z,2.20
2023-04-14T10:03:37.439Z,1.13
2023-04-14T10:06:09.698Z,1.37
2023-04-14T10:08:46.338Z,1.43
2023-04-14T10:11:19.812Z,1.07
2023-04-14T10:13:49.414Z,1.37
2023-04-14T10:16:18.536Z,1.13
2023-04-14T10:18:46.817Z,1.30
2023-04-14T10:21:15.630Z,1.10
2023-04-14T10:23:46.090Z,1.40
2023-04-14T10:26:14.747Z,1.20
2023-04-14T10:28:46.305Z,1.10
2023-04-14T10:31:20.358Z,1.10
2023-04-14T10:33:48.722Z,1.87
2023-04-14T10:36:25.123Z,1.57
2023-04-14T10:39:01.043Z,1.70
2023-04-14T10:41:37.577Z,1.50
2023-04-14T10:44:06.086Z,1.30
2023-04-14T10:46:44.369Z,1.27
2023-04-14T10:49:13.399Z,1.30
2023-04-14T10:51:41.841Z,1.43
2023-04-14T10:54:18.883Z,1.37
2023-04-14T10:57:15.576Z,1.30
2023-04-14T10:59:44.295Z,1.23
2023-04-14T11:02:25.034Z,1.17
2023-04-14T11:05:00.465Z,1.20
2023-04-14T11:07:30.213Z,1.43
2023-04-14T11:10:26.883Z,1.50
2023-04-14T11:13:01.964Z,1.47
2023-04-14T11:15:58.289Z,1.40
2023-04-14T11:18:38.652Z,1.53
2023-04-14T11:21:08.131Z,1.10
2023-04-14T11:23:37.264Z,0.80
2023-04-14T11:26:08.962Z,0.90
2023-04-14T11:28:38.255Z,0.83
2023-04-14T11:31:08.423Z,1.00
2023-04-14T11:33:38.355Z,1.10
2023-04-14T11:36:08.151Z,1.30
2023-04-14T11:38:40.332Z,0.60
2023-04-14T11:41:10.563Z,1.00
2023-04-14T11:43:39.162Z,1.83
2023-04-14T11:46:09.021Z,1.13
2023-04-14T11:48:37.737Z,0.80
2023-04-14T11:51:06.690Z,0.80
2023-04-14T11:53:34.974Z,1.10
2023-04-14T11:56:03.709Z,0.77
2023-04-14T11:58:33.881Z,1.03
2023-04-14T12:01:02.315Z,0.93
2023-04-14T12:03:33.195Z,0.90
2023-04-14T12:06:02.273Z,1.37
2023-04-14T12:08:31.294Z,1.30
2023-04-14T12:11:00.171Z,0.93
2023-04-14T12:13:29.550Z,1.10
2023-04-14T12:15:59.124Z,1.37
2023-04-14T12:18:29.265Z,1.00
2023-04-14T12:21:03.134Z,1.00
2023-04-14T12:23:35.036Z,1.13
2023-04-14T12:26:03.277Z,1.40
2023-04-14T12:28:32.890Z,1.13
2023-04-14T12:31:05.142Z,0.90
2023-04-14T12:33:33.581Z,1.67
2023-04-14T12:36:03.382Z,1.30
2023-04-14T12:38:31.541Z,1.07
2023-04-14T12:40:59.956Z,2.27
2023-04-14T12:43:32.439Z,1.10
2023-04-14T12:46:00.895Z,0.83
2023-04-14T12:48:44.780Z,0.93
2023-04-14T12:51:14.756Z,0.83
2023-04-14T12:53:43.872Z,1.00
2023-04-14T12:56:13.970Z,1.00
2023-04-14T12:58:43.583Z,1.00
2023-04-14T13:01:12.698Z,1.00
2023-04-14T13:03:45.073Z,1.00
2023-04-14T13:06:16.391Z,0.90
2023-04-14T13:08:45.649Z,0.70
2023-04-14T13:11:14.021Z,0.97
2023-04-14T13:13:42.369Z,0.70
2023-04-14T13:16:12.833Z,0.83
2023-04-14T13:18:45.372Z,1.47
2023-04-14T13:21:13.921Z,0.80
2023-04-14T13:23:42.087Z,1.00
2023-04-14T13:26:10.470Z,0.80
2023-04-14T13:28:38.739Z,0.80
2023-04-14T13:31:07.078Z,1.47
2023-04-14T13:33:35.191Z,0.80
2023-04-14T13:36:04.908Z,0.73
2023-04-14T13:38:33.459Z,1.17
2023-04-14T13:41:01.662Z,1.17
2023-04-14T13:43:30.683Z,0.83
2023-04-14T13:45:59.086Z,1.10
2023-04-14T13:48:27.413Z,0.93
2023-04-14T13:50:55.894Z,1.53
2023-04-14T13:53:25.692Z,1.10
2023-04-14T13:55:53.806Z,0.70
2023-04-14T13:58:22.802Z,1.00
2023-04-14T14:00:50.836Z,1.20
2023-04-14T14:03:19.055Z,0.97
2023-04-14T14:05:47.237Z,0.80
2023-04-14T14:08:15.895Z,0.60
2023-04-14T14:10:45.442Z,0.80
2023-04-14T14:13:14.639Z,1.30
2023-04-14T14:15:46.439Z,0.60
2023-04-14T14:18:16.484Z,1.03
2023-04-14T14:20:45.025Z,0.53
2023-04-14T14:23:13.132Z,0.50
2023-04-14T14:25:41.848Z,0.97
2023-04-14T14:28:12.152Z,0.90
2023-04-14T14:30:40.427Z,0.70
2023-04-14T14:33:08.662Z,0.70
2023-04-14T14:35:36.825Z,0.57
2023-04-14T14:38:04.886Z,0.80
2023-04-14T14:40:33.050Z,0.80
2023-04-14T14:43:01.157Z,0.90
2023-04-14T14:45:33.029Z,0.90
2023-04-14T14:48:02.079Z,1.97
2023-04-14T14:50:30.151Z,0.80
2023-04-14T14:52:58.153Z,1.20
2023-04-14T14:55:27.197Z,1.43
2023-04-14T14:57:55.346Z,0.90
2023-04-14T15:00:23.388Z,0.60
2023-04-14T15:02:53.508Z,1.00
2023-04-14T15:05:21.759Z,0.87
2023-04-14T15:07:50.550Z,0.87
2023-04-14T15:10:18.836Z,0.90
2023-04-14T15:12:47.019Z,1.30
2023-04-14T15:15:15.093Z,0.90
2023-04-14T15:17:43.214Z,0.67
2023-04-14T15:20:14.509Z,1.40
2023-04-14T15:22:42.563Z,1.07
2023-04-14T15:25:11.670Z,0.80
2023-04-14T15:27:39.807Z,1.20
2023-04-14T15:30:09.206Z,0.80
2023-04-14T15:32:37.438Z,0.87
2023-04-14T15:35:06.115Z,0.93
2023-04-14T15:37:35.610Z,0.90
2023-04-14T15:40:04.161Z,0.80
2023-04-14T15:42:32.261Z,0.90
2023-04-14T15:45:00.334Z,1.30
2023-04-14T15:47:28.544Z,1.20
2023-04-14T15:50:08.970Z,2.27
2023-04-14T15:52:39.860Z,3.70
2023-04-14T15:55:10.573Z,4.07
2023-04-14T15:57:38.683Z,2.00
2023-04-14T16:00:08.420Z,1.23
2023-04-14T16:02:37.383Z,1.10
2023-04-14T16:05:06.208Z,1.80
2023-04-14T16:07:34.669Z,1.53
2023-04-14T16:10:05.407Z,2.33
2023-04-14T16:12:35.109Z,1.83
2023-04-14T16:15:03.535Z,1.20
2023-04-14T16:17:32.072Z,1.53
2023-04-14T16:20:01.765Z,0.97
2023-04-14T16:22:31.257Z,1.10
2023-04-14T16:24:59.358Z,1.07
2023-04-14T16:27:29.377Z,1.90
2023-04-14T16:29:57.580Z,4.97
2023-04-14T16:32:25.820Z,3.30
2023-04-14T16:34:53.925Z,3.57
2023-04-14T16:37:25.618Z,3.20
2023-04-14T16:39:56.082Z,2.57
2023-04-14T16:42:25.188Z,2.07
2023-04-14T16:44:56.038Z,1.60
2023-04-14T16:47:24.599Z,1.77
2023-04-14T16:49:52.955Z,1.50
2023-04-14T16:52:21.027Z,1.30
2023-04-14T16:54:49.340Z,2.33
2023-04-14T16:57:17.514Z,2.20
2023-04-14T16:59:46.250Z,1.73
2023-04-14T17:02:16.003Z,2.10
2023-04-14T17:04:44.601Z,4.90
2023-04-14T17:07:12.737Z,5.07
2023-04-14T17:09:40.993Z,4.37
2023-04-14T17:12:09.692Z,5.57
2023-04-14T17:14:38.487Z,5.43
2023-04-14T17:17:06.583Z,3.50
2023-04-14T17:19:36.393Z,3.60
2023-04-14T17:22:04.466Z,3.53
2023-04-14T17:24:32.704Z,2.20
2023-04-14T17:27:00.856Z,1.43
2023-04-14T17:29:29.599Z,1.50
2023-04-14T17:31:57.982Z,1.00
2023-04-14T17:34:26.198Z,1.60
2023-04-14T17:36:56.072Z,2.53
2023-04-14T17:39:26.787Z,2.90
2023-04-14T17:41:56.134Z,1.70
2023-04-14T17:44:31.901Z,1.20
2023-04-14T17:47:01.051Z,1.90
2023-04-14T17:49:29.453Z,1.00
2023-04-14T17:51:59.121Z,1.10
2023-04-14T17:54:27.442Z,1.00
2023-04-14T17:56:56.734Z,1.30
2023-04-14T17:59:25.975Z,1.40
2023-04-14T18:01:54.193Z,2.33
2023-04-14T18:04:22.526Z,1.77
2023-04-14T18:06:50.974Z,1.10
2023-04-14T18:09:20.456Z,1.43
2023-04-14T18:11:48.564Z,1.83
2023-04-14T18:14:16.676Z,1.30
2023-04-14T18:16:44.858Z,1.30
2023-04-14T18:19:13.648Z,1.20
2023-04-14T18:21:43.758Z,0.90
2023-04-14T18:26:45.987Z,1.50
2023-04-14T18:29:14.031Z,1.20
2023-04-14T18:31:42.694Z,1.10
2023-04-14T18:34:12.605Z,1.40
2023-04-14T18:36:40.708Z,1.40
2023-04-14T18:39:09.179Z,1.17
2023-04-14T18:41:37.211Z,3.07
2023-04-14T18:44:07.548Z,2.33
2023-04-14T18:46:35.990Z,2.20
2023-04-14T18:49:04.352Z,1.73
2023-04-14T18:51:32.710Z,1.97
2023-04-14T18:54:01.077Z,3.03
2023-04-14T18:56:29.372Z,1.50
2023-04-14T18:58:57.635Z,1.70
2023-04-14T19:01:27.247Z,2.33
2023-04-14T19:03:57.600Z,1.90
2023-04-14T19:06:26.278Z,1.43
2023-04-14T19:08:54.365Z,3.63
2023-04-14T19:11:22.420Z,4.30
2023-04-14T19:13:50.635Z,4.57
2023-04-14T19:16:18.791Z,3.63
2023-04-14T19:18:48.260Z,5.03
2023-04-14T19:21:16.314Z,3.20
2023-04-14T19:23:45.670Z,2.50
2023-04-14T19:26:13.927Z,1.63
2023-04-14T19:28:42.568Z,1.70
2023-04-14T19:31:10.993Z,1.40
2023-04-14T19:33:41.769Z,2.03
2023-04-14T19:36:15.016Z,1.90
2023-04-14T19:38:44.110Z,2.10
2023-04-14T19:41:12.541Z,9.87
2023-04-14T19:43:40.747Z,3.13
2023-04-14T19:46:10.504Z,5.10
2023-04-14T19:48:39.057Z,4.00
2023-04-14T19:51:07.183Z,2.23
2023-04-14T19:53:36.675Z,1.77
2023-04-14T19:56:05.629Z,1.47
2023-04-14T19:58:34.009Z,1.70
2023-04-14T20:01:02.154Z,1.60
2023-04-14T20:03:33.089Z,1.27
2023-04-14T20:06:03.199Z,1.60
2023-04-14T20:08:32.319Z,1.83
2023-04-14T20:11:02.035Z,2.17
2023-04-14T20:13:32.113Z,1.90
2023-04-14T20:16:01.507Z,1.57
2023-04-14T20:18:29.642Z,2.40
2023-04-14T20:20:58.491Z,1.60
2023-04-14T20:23:26.916Z,1.17
2023-04-14T20:25:56.023Z,2.40
2023-04-14T20:28:26.410Z,3.00
2023-04-14T20:30:55.887Z,2.40
2023-04-14T20:33:24.732Z,1.27
2023-04-14T20:35:54.106Z,3.57
2023-04-14T20:38:23.277Z,4.53
2023-04-14T20:40:51.643Z,2.50
2023-04-14T20:43:19.791Z,2.07
2023-04-14T20:45:49.954Z,3.07
2023-04-14T20:48:18.489Z,2.70
2023-04-14T20:50:49.700Z,2.67
2023-04-14T20:53:18.257Z,1.53
2023-04-14T20:55:46.380Z,2.40
2023-04-14T20:58:14.916Z,2.60
2023-04-14T21:00:43.477Z,2.07
2023-04-14T21:03:13.107Z,2.57
2023-04-14T21:05:41.654Z,1.60
2023-04-14T21:08:09.681Z,2.20
2023-04-14T21:11:15.993Z,1.63
2023-04-14T21:15:29.969Z,2.03
2023-04-14T21:16:14.730Z,1.93
2023-04-14T21:18:44.274Z,2.67
2023-04-14T21:21:13.081Z,2.60
2023-04-14T21:23:41.174Z,2.30
2023-04-14T21:26:09.340Z,2.20
2023-04-14T21:28:38.115Z,1.93
2023-04-14T21:31:06.599Z,2.53
2023-04-14T21:33:34.869Z,2.60
2023-04-14T21:36:04.416Z,2.30
2023-04-14T21:38:32.535Z,2.10
2023-04-14T21:41:00.821Z,2.53
2023-04-14T21:43:28.897Z,2.50
2023-04-14T21:45:57.094Z,2.23
2023-04-14T21:48:25.211Z,2.13
2023-04-14T21:50:53.245Z,2.60
2023-04-14T21:53:22.762Z,3.27
2023-04-14T21:55:58.791Z,2.40
2023-04-14T21:58:39.207Z,2.60
2023-04-14T22:01:09.562Z,2.47
2023-04-14T22:03:41.492Z,2.20
2023-04-14T22:06:11.180Z,2.40
2023-04-14T22:08:41.387Z,2.03
2023-04-14T22:11:09.692Z,2.70
2023-04-14T22:13:37.988Z,2.00
2023-04-14T22:16:06.687Z,3.70
2023-04-14T22:18:35.930Z,1.73
2023-04-14T22:21:04.861Z,3.10
2023-04-14T22:23:33.185Z,2.37
2023-04-14T22:26:03.550Z,3.10
2023-04-14T22:28:31.679Z,2.17
2023-04-14T22:30:59.812Z,3.60
2023-04-14T22:33:27.894Z,3.40
2023-04-14T22:35:56.243Z,2.87
2023-04-14T22:38:24.402Z,3.10
2023-04-14T22:40:52.835Z,2.57
2023-04-14T22:43:22.458Z,2.50
2023-04-14T22:45:51.049Z,2.60
2023-04-14T22:48:19.228Z,3.23
2023-04-14T22:50:47.614Z,2.60
2023-04-14T22:53:15.758Z,2.27
2023-04-14T22:55:44.575Z,3.03
2023-04-14T22:58:16.850Z,2.50
2023-04-14T23:00:47.450Z,2.87
2023-04-14T23:03:15.901Z,2.40
2023-04-14T23:05:44.783Z,2.03
2023-04-14T23:08:12.881Z,3.90
2023-04-14T23:10:41.126Z,2.50
2023-04-14T23:13:09.322Z,2.27
2023-04-14T23:15:37.519Z,1.87
2023-04-14T23:18:07.021Z,2.30
2023-04-14T23:20:35.338Z,2.37
2023-04-14T23:23:04.729Z,3.67
2023-04-14T23:25:33.499Z,2.50
2023-04-14T23:28:01.573Z,2.00
2023-04-14T23:30:29.695Z,3.27
2023-04-14T23:32:57.763Z,1.50
2023-04-14T23:35:27.204Z,2.50
2023-04-14T23:37:56.536Z,3.30
2023-04-14T23:40:24.583Z,1.83
2023-04-14T23:42:55.980Z,3.07
2023-04-14T23:45:24.238Z,3.03
2023-04-14T23:47:52.347Z,2.40
2023-04-14T23:50:20.687Z,3.77
2023-04-14T23:52:51.339Z,3.33
2023-04-14T23:55:19.731Z,3.00
